sensor_id;sensor_type;location;lat;lon;timestamp;P1;durP1;ratioP1;P2;durP2;ratioP2
62037;SDS011;47991;42.974;12.082;2023-12-20T00:01:21;14.30;;;8.60;;
62037;SDS011;47991;42.974;12.082;2023-12-20T00:03:51;14.80;;;8.90;;
62037;SDS011;47991;42.974;12.082;2023-12-20T00:06:18;16.70;;;8.40;;
62037;SDS011;47991;42.974;12.082;2023-12-20T00:08:46;14.10;;;8.20;;
62037;SDS011;47991;42.974;12.082;2023-12-20T00:11:13;14.30;;;8.30;;
62037;SDS011;47991;42.974;12.082;2023-12-20T00:13:42;16.10;;;10.00;;
62037;SDS011;47991;42.974;12.082;2023-12-20T00:16:09;17.90;;;11.00;;
62037;SDS011;47991;42.974;12.082;2023-12-20T00:18:39;18.60;;;11.00;;
62037;SDS011;47991;42.974;12.082;2023-12-20T00:21:07;17.80;;;10.80;;
62037;SDS011;47991;42.974;12.082;2023-12-20T00:23:36;18.00;;;10.40;;
62037;SDS011;47991;42.974;12.082;2023-12-20T00:26:04;18.60;;;9.90;;
62037;SDS011;47991;42.974;12.082;2023-12-20T00:28:34;16.80;;;9.40;;
62037;SDS011;47991;42.974;12.082;2023-12-20T00:31:04;18.70;;;10.80;;
62037;SDS011;47991;42.974;12.082;2023-12-20T00:33:32;22.90;;;13.40;;
62037;SDS011;47991;42.974;12.082;2023-12-20T00:36:00;21.90;;;12.40;;
62037;SDS011;47991;42.974;12.082;2023-12-20T00:38:28;19.70;;;10.00;;
62037;SDS011;47991;42.974;12.082;2023-12-20T00:40:54;18.80;;;12.00;;
62037;SDS011;47991;42.974;12.082;2023-12-20T00:43:22;29.50;;;15.50;;
62037;SDS011;47991;42.974;12.082;2023-12-20T00:45:49;26.00;;;12.70;;
62037;SDS011;47991;42.974;12.082;2023-12-20T00:48:16;20.40;;;11.30;;
62037;SDS011;47991;42.974;12.082;2023-12-20T00:50:43;21.60;;;12.30;;
62037;SDS011;47991;42.974;12.082;2023-12-20T00:53:10;24.90;;;13.40;;
62037;SDS011;47991;42.974;12.082;2023-12-20T00:55:37;24.50;;;13.80;;
62037;SDS011;47991;42.974;12.082;2023-12-20T00:58:04;21.00;;;12.90;;
62037;SDS011;47991;42.974;12.082;2023-12-20T01:00:31;24.70;;;13.40;;
62037;SDS011;47991;42.974;12.082;2023-12-20T01:02:58;20.30;;;12.40;;
62037;SDS011;47991;42.974;12.082;2023-12-20T01:05:25;22.50;;;13.90;;
62037;SDS011;47991;42.974;12.082;2023-12-20T01:07:52;16.00;;;9.30;;
62037;SDS011;47991;42.974;12.082;2023-12-20T01:10:19;17.60;;;9.90;;
62037;SDS011;47991;42.974;12.082;2023-12-20T01:12:46;18.70;;;10.40;;
62037;SDS011;47991;42.974;12.082;2023-12-20T01:15:13;17.50;;;9.50;;
62037;SDS011;47991;42.974;12.082;2023-12-20T01:17:40;19.50;;;11.90;;
62037;SDS011;47991;42.974;12.082;2023-12-20T01:20:08;20.00;;;13.30;;
62037;SDS011;47991;42.974;12.082;2023-12-20T01:22:35;22.50;;;12.80;;
62037;SDS011;47991;42.974;12.082;2023-12-20T01:25:03;19.90;;;13.40;;
62037;SDS011;47991;42.974;12.082;2023-12-20T01:27:31;21.90;;;14.80;;
62037;SDS011;47991;42.974;12.082;2023-12-20T01:29:58;20.60;;;13.60;;
62037;SDS011;47991;42.974;12.082;2023-12-20T01:32:25;23.60;;;14.70;;
62037;SDS011;47991;42.974;12.082;2023-12-20T01:34:52;20.10;;;14.40;;
62037;SDS011;47991;42.974;12.082;2023-12-20T01:37:19;19.10;;;12.00;;
62037;SDS011;47991;42.974;12.082;2023-12-20T01:39:46;24.40;;;14.30;;
62037;SDS011;47991;42.974;12.082;2023-12-20T01:42:13;21.70;;;13.70;;
62037;SDS011;47991;42.974;12.082;2023-12-20T01:44:40;25.80;;;14.30;;
62037;SDS011;47991;42.974;12.082;2023-12-20T01:47:07;24.60;;;15.20;;
62037;SDS011;47991;42.974;12.082;2023-12-20T01:49:35;23.50;;;15.50;;
62037;SDS011;47991;42.974;12.082;2023-12-20T01:52:02;22.60;;;14.20;;
62037;SDS011;47991;42.974;12.082;2023-12-20T01:54:30;21.80;;;12.10;;
62037;SDS011;47991;42.974;12.082;2023-12-20T01:56:58;16.50;;;9.80;;
62037;SDS011;47991;42.974;12.082;2023-12-20T01:59:25;16.30;;;10.50;;
62037;SDS011;47991;42.974;12.082;2023-12-20T02:01:52;15.40;;;9.50;;
62037;SDS011;47991;42.974;12.082;2023-12-20T02:04:19;15.90;;;9.00;;
62037;SDS011;47991;42.974;12.082;2023-12-20T02:06:47;16.70;;;9.80;;
62037;SDS011;47991;42.974;12.082;2023-12-20T02:09:22;21.90;;;12.70;;
62037;SDS011;47991;42.974;12.082;2023-12-20T02:11:49;20.60;;;13.40;;
62037;SDS011;47991;42.974;12.082;2023-12-20T02:14:16;24.30;;;14.90;;
62037;SDS011;47991;42.974;12.082;2023-12-20T02:16:43;27.00;;;16.60;;
62037;SDS011;47991;42.974;12.082;2023-12-20T02:19:13;21.90;;;15.10;;
62037;SDS011;47991;42.974;12.082;2023-12-20T02:21:41;22.20;;;13.70;;
62037;SDS011;47991;42.974;12.082;2023-12-20T02:24:08;23.10;;;14.80;;
62037;SDS011;47991;42.974;12.082;2023-12-20T02:26:35;22.90;;;14.60;;
62037;SDS011;47991;42.974;12.082;2023-12-20T02:29:02;22.90;;;13.80;;
62037;SDS011;47991;42.974;12.082;2023-12-20T02:31:30;25.90;;;15.10;;
62037;SDS011;47991;42.974;12.082;2023-12-20T02:33:57;25.50;;;14.60;;
62037;SDS011;47991;42.974;12.082;2023-12-20T02:36:24;26.10;;;15.30;;
62037;SDS011;47991;42.974;12.082;2023-12-20T02:38:51;24.80;;;15.60;;
62037;SDS011;47991;42.974;12.082;2023-12-20T02:41:18;24.60;;;14.40;;
62037;SDS011;47991;42.974;12.082;2023-12-20T02:43:46;22.10;;;13.60;;
62037;SDS011;47991;42.974;12.082;2023-12-20T02:46:13;21.30;;;13.30;;
62037;SDS011;47991;42.974;12.082;2023-12-20T02:48:43;23.90;;;16.40;;
62037;SDS011;47991;42.974;12.082;2023-12-20T02:51:12;21.70;;;15.30;;
62037;SDS011;47991;42.974;12.082;2023-12-20T02:53:39;20.30;;;14.20;;
62037;SDS011;47991;42.974;12.082;2023-12-20T02:56:06;18.50;;;12.10;;
62037;SDS011;47991;42.974;12.082;2023-12-20T02:58:33;17.80;;;11.20;;
62037;SDS011;47991;42.974;12.082;2023-12-20T03:01:00;17.90;;;10.80;;
62037;SDS011;47991;42.974;12.082;2023-12-20T03:03:27;22.20;;;13.70;;
62037;SDS011;47991;42.974;12.082;2023-12-20T03:05:54;23.80;;;14.80;;
62037;SDS011;47991;42.974;12.082;2023-12-20T03:08:21;25.70;;;16.80;;
62037;SDS011;47991;42.974;12.082;2023-12-20T03:10:48;30.60;;;17.80;;
62037;SDS011;47991;42.974;12.082;2023-12-20T03:13:15;27.40;;;17.90;;
62037;SDS011;47991;42.974;12.082;2023-12-20T03:15:42;26.80;;;17.40;;
62037;SDS011;47991;42.974;12.082;2023-12-20T03:18:09;25.10;;;16.80;;
62037;SDS011;47991;42.974;12.082;2023-12-20T03:20:36;25.90;;;16.20;;
62037;SDS011;47991;42.974;12.082;2023-12-20T03:23:03;28.50;;;17.80;;
62037;SDS011;47991;42.974;12.082;2023-12-20T03:25:30;26.60;;;17.70;;
62037;SDS011;47991;42.974;12.082;2023-12-20T03:27:57;26.00;;;17.50;;
62037;SDS011;47991;42.974;12.082;2023-12-20T03:30:24;30.60;;;18.30;;
62037;SDS011;47991;42.974;12.082;2023-12-20T03:32:53;28.00;;;18.60;;
62037;SDS011;47991;42.974;12.082;2023-12-20T03:35:20;28.00;;;17.50;;
62037;SDS011;47991;42.974;12.082;2023-12-20T03:37:47;26.30;;;17.50;;
62037;SDS011;47991;42.974;12.082;2023-12-20T03:40:14;25.60;;;16.80;;
62037;SDS011;47991;42.974;12.082;2023-12-20T03:42:41;26.90;;;17.60;;
62037;SDS011;47991;42.974;12.082;2023-12-20T03:45:08;26.10;;;16.30;;
62037;SDS011;47991;42.974;12.082;2023-12-20T03:47:36;24.50;;;17.30;;
62037;SDS011;47991;42.974;12.082;2023-12-20T03:50:03;27.70;;;17.80;;
62037;SDS011;47991;42.974;12.082;2023-12-20T03:52:31;28.00;;;19.20;;
62037;SDS011;47991;42.974;12.082;2023-12-20T03:54:58;30.30;;;19.70;;
62037;SDS011;47991;42.974;12.082;2023-12-20T03:57:25;30.40;;;19.00;;
62037;SDS011;47991;42.974;12.082;2023-12-20T03:59:53;26.90;;;18.10;;
62037;SDS011;47991;42.974;12.082;2023-12-20T04:02:20;30.20;;;18.00;;
62037;SDS011;47991;42.974;12.082;2023-12-20T04:04:47;26.90;;;18.00;;
62037;SDS011;47991;42.974;12.082;2023-12-20T04:07:14;27.20;;;17.60;;
62037;SDS011;47991;42.974;12.082;2023-12-20T04:09:41;27.40;;;18.40;;
62037;SDS011;47991;42.974;12.082;2023-12-20T04:12:08;27.60;;;17.50;;
62037;SDS011;47991;42.974;12.082;2023-12-20T04:14:37;27.20;;;17.00;;
62037;SDS011;47991;42.974;12.082;2023-12-20T04:17:04;27.40;;;16.90;;
62037;SDS011;47991;42.974;12.082;2023-12-20T04:19:31;29.40;;;17.70;;
62037;SDS011;47991;42.974;12.082;2023-12-20T04:21:58;27.80;;;18.00;;
62037;SDS011;47991;42.974;12.082;2023-12-20T04:24:26;28.00;;;17.80;;
62037;SDS011;47991;42.974;12.082;2023-12-20T04:26:53;28.10;;;17.90;;
62037;SDS011;47991;42.974;12.082;2023-12-20T04:29:20;32.30;;;20.40;;
62037;SDS011;47991;42.974;12.082;2023-12-20T04:31:50;30.20;;;20.20;;
62037;SDS011;47991;42.974;12.082;2023-12-20T04:36:48;26.20;;;17.40;;
62037;SDS011;47991;42.974;12.082;2023-12-20T04:39:16;30.90;;;19.90;;
62037;SDS011;47991;42.974;12.082;2023-12-20T04:41:43;29.30;;;19.40;;
62037;SDS011;47991;42.974;12.082;2023-12-20T04:44:10;31.90;;;20.60;;
62037;SDS011;47991;42.974;12.082;2023-12-20T04:46:39;31.60;;;20.30;;
62037;SDS011;47991;42.974;12.082;2023-12-20T04:49:07;48.10;;;26.40;;
62037;SDS011;47991;42.974;12.082;2023-12-20T04:51:34;34.40;;;20.60;;
62037;SDS011;47991;42.974;12.082;2023-12-20T04:54:02;32.90;;;20.90;;
62037;SDS011;47991;42.974;12.082;2023-12-20T04:56:29;34.50;;;21.00;;
62037;SDS011;47991;42.974;12.082;2023-12-20T04:58:56;29.70;;;20.30;;
62037;SDS011;47991;42.974;12.082;2023-12-20T05:01:24;30.40;;;20.50;;
62037;SDS011;47991;42.974;12.082;2023-12-20T05:03:51;28.00;;;20.30;;
62037;SDS011;47991;42.974;12.082;2023-12-20T05:06:19;24.90;;;16.20;;
62037;SDS011;47991;42.974;12.082;2023-12-20T05:08:45;25.10;;;16.90;;
62037;SDS011;47991;42.974;12.082;2023-12-20T05:11:12;28.80;;;18.40;;
62037;SDS011;47991;42.974;12.082;2023-12-20T05:13:41;29.10;;;19.30;;
62037;SDS011;47991;42.974;12.082;2023-12-20T05:16:08;30.90;;;20.20;;
62037;SDS011;47991;42.974;12.082;2023-12-20T05:18:35;31.90;;;21.30;;
62037;SDS011;47991;42.974;12.082;2023-12-20T05:21:02;33.00;;;22.00;;
62037;SDS011;47991;42.974;12.082;2023-12-20T05:23:29;33.30;;;23.40;;
62037;SDS011;47991;42.974;12.082;2023-12-20T05:25:56;34.30;;;22.40;;
62037;SDS011;47991;42.974;12.082;2023-12-20T05:28:23;35.90;;;24.80;;
62037;SDS011;47991;42.974;12.082;2023-12-20T05:33:21;36.00;;;22.90;;
62037;SDS011;47991;42.974;12.082;2023-12-20T05:35:48;29.60;;;19.50;;
62037;SDS011;47991;42.974;12.082;2023-12-20T05:38:15;30.90;;;20.30;;
62037;SDS011;47991;42.974;12.082;2023-12-20T05:40:42;33.40;;;22.00;;
62037;SDS011;47991;42.974;12.082;2023-12-20T05:43:09;31.90;;;22.40;;
62037;SDS011;47991;42.974;12.082;2023-12-20T05:45:37;34.60;;;23.10;;
62037;SDS011;47991;42.974;12.082;2023-12-20T05:48:04;29.90;;;19.70;;
62037;SDS011;47991;42.974;12.082;2023-12-20T05:50:32;29.20;;;19.70;;
62037;SDS011;47991;42.974;12.082;2023-12-20T05:52:59;31.60;;;20.00;;
62037;SDS011;47991;42.974;12.082;2023-12-20T05:55:26;35.90;;;23.00;;
62037;SDS011;47991;42.974;12.082;2023-12-20T05:57:53;33.50;;;23.40;;
62037;SDS011;47991;42.974;12.082;2023-12-20T06:00:21;34.00;;;23.30;;
62037;SDS011;47991;42.974;12.082;2023-12-20T06:02:48;36.20;;;23.70;;
62037;SDS011;47991;42.974;12.082;2023-12-20T06:05:15;35.30;;;22.40;;
62037;SDS011;47991;42.974;12.082;2023-12-20T06:07:46;33.60;;;23.90;;
62037;SDS011;47991;42.974;12.082;2023-12-20T06:10:15;36.70;;;24.60;;
62037;SDS011;47991;42.974;12.082;2023-12-20T06:12:42;34.60;;;24.10;;
62037;SDS011;47991;42.974;12.082;2023-12-20T06:15:11;39.10;;;23.80;;
62037;SDS011;47991;42.974;12.082;2023-12-20T06:17:38;36.50;;;23.90;;
62037;SDS011;47991;42.974;12.082;2023-12-20T06:20:06;38.10;;;26.30;;
62037;SDS011;47991;42.974;12.082;2023-12-20T06:22:35;39.30;;;27.00;;
62037;SDS011;47991;42.974;12.082;2023-12-20T06:25:02;37.10;;;23.50;;
62037;SDS011;47991;42.974;12.082;2023-12-20T06:27:30;35.20;;;22.00;;
62037;SDS011;47991;42.974;12.082;2023-12-20T06:29:58;30.40;;;21.00;;
62037;SDS011;47991;42.974;12.082;2023-12-20T06:32:25;32.60;;;22.70;;
62037;SDS011;47991;42.974;12.082;2023-12-20T06:34:54;33.90;;;22.40;;
62037;SDS011;47991;42.974;12.082;2023-12-20T06:37:22;34.20;;;22.60;;
62037;SDS011;47991;42.974;12.082;2023-12-20T06:39:49;30.30;;;21.60;;
62037;SDS011;47991;42.974;12.082;2023-12-20T06:42:16;33.50;;;23.30;;
62037;SDS011;47991;42.974;12.082;2023-12-20T06:44:43;34.80;;;23.80;;
62037;SDS011;47991;42.974;12.082;2023-12-20T06:47:10;37.60;;;25.50;;
62037;SDS011;47991;42.974;12.082;2023-12-20T06:49:38;38.50;;;25.20;;
62037;SDS011;47991;42.974;12.082;2023-12-20T06:52:05;37.10;;;23.90;;
62037;SDS011;47991;42.974;12.082;2023-12-20T06:54:32;30.30;;;22.00;;
62037;SDS011;47991;42.974;12.082;2023-12-20T06:57:01;30.90;;;21.20;;
62037;SDS011;47991;42.974;12.082;2023-12-20T06:59:30;29.40;;;20.40;;
62037;SDS011;47991;42.974;12.082;2023-12-20T07:01:57;33.20;;;22.00;;
62037;SDS011;47991;42.974;12.082;2023-12-20T07:04:24;31.50;;;21.80;;
62037;SDS011;47991;42.974;12.082;2023-12-20T07:06:52;35.60;;;22.30;;
62037;SDS011;47991;42.974;12.082;2023-12-20T07:09:24;34.30;;;22.50;;
62037;SDS011;47991;42.974;12.082;2023-12-20T07:11:52;33.50;;;22.80;;
62037;SDS011;47991;42.974;12.082;2023-12-20T07:14:22;33.10;;;21.70;;
62037;SDS011;47991;42.974;12.082;2023-12-20T07:16:53;33.90;;;23.30;;
62037;SDS011;47991;42.974;12.082;2023-12-20T07:19:20;38.60;;;22.70;;
62037;SDS011;47991;42.974;12.082;2023-12-20T07:21:47;35.80;;;23.10;;
62037;SDS011;47991;42.974;12.082;2023-12-20T07:24:14;31.00;;;20.90;;
62037;SDS011;47991;42.974;12.082;2023-12-20T07:26:42;33.80;;;21.10;;
62037;SDS011;47991;42.974;12.082;2023-12-20T07:29:09;31.50;;;21.40;;
62037;SDS011;47991;42.974;12.082;2023-12-20T07:31:37;31.10;;;21.20;;
62037;SDS011;47991;42.974;12.082;2023-12-20T07:34:05;32.40;;;20.70;;
62037;SDS011;47991;42.974;12.082;2023-12-20T07:36:32;36.80;;;23.70;;
62037;SDS011;47991;42.974;12.082;2023-12-20T07:38:59;32.00;;;22.20;;
62037;SDS011;47991;42.974;12.082;2023-12-20T07:41:27;34.10;;;21.30;;
62037;SDS011;47991;42.974;12.082;2023-12-20T07:43:54;33.20;;;21.10;;
62037;SDS011;47991;42.974;12.082;2023-12-20T07:46:23;34.60;;;22.70;;
62037;SDS011;47991;42.974;12.082;2023-12-20T07:48:50;39.00;;;24.70;;
62037;SDS011;47991;42.974;12.082;2023-12-20T07:51:22;32.20;;;21.90;;
62037;SDS011;47991;42.974;12.082;2023-12-20T07:53:51;31.50;;;20.60;;
62037;SDS011;47991;42.974;12.082;2023-12-20T07:56:21;27.70;;;20.00;;
62037;SDS011;47991;42.974;12.082;2023-12-20T07:58:48;28.40;;;18.90;;
62037;SDS011;47991;42.974;12.082;2023-12-20T08:01:16;27.40;;;19.00;;
62037;SDS011;47991;42.974;12.082;2023-12-20T08:03:45;27.50;;;18.40;;
62037;SDS011;47991;42.974;12.082;2023-12-20T08:06:13;32.30;;;19.60;;
62037;SDS011;47991;42.974;12.082;2023-12-20T08:08:40;30.60;;;19.30;;
62037;SDS011;47991;42.974;12.082;2023-12-20T08:11:07;31.60;;;21.70;;
62037;SDS011;47991;42.974;12.082;2023-12-20T08:13:34;31.00;;;21.10;;
62037;SDS011;47991;42.974;12.082;2023-12-20T08:16:02;33.30;;;23.20;;
62037;SDS011;47991;42.974;12.082;2023-12-20T08:18:30;32.90;;;21.60;;
62037;SDS011;47991;42.974;12.082;2023-12-20T08:20:57;27.30;;;19.00;;
62037;SDS011;47991;42.974;12.082;2023-12-20T08:23:24;28.50;;;17.10;;
62037;SDS011;47991;42.974;12.082;2023-12-20T08:25:51;46.20;;;29.00;;
62037;SDS011;47991;42.974;12.082;2023-12-20T08:28:19;32.70;;;21.50;;
62037;SDS011;47991;42.974;12.082;2023-12-20T08:30:47;29.30;;;20.60;;
62037;SDS011;47991;42.974;12.082;2023-12-20T08:33:14;27.60;;;19.00;;
62037;SDS011;47991;42.974;12.082;2023-12-20T08:35:42;29.40;;;20.00;;
62037;SDS011;47991;42.974;12.082;2023-12-20T08:38:09;28.10;;;19.40;;
62037;SDS011;47991;42.974;12.082;2023-12-20T08:40:35;25.60;;;19.40;;
62037;SDS011;47991;42.974;12.082;2023-12-20T08:43:02;30.70;;;20.80;;
62037;SDS011;47991;42.974;12.082;2023-12-20T08:45:30;29.90;;;20.50;;
62037;SDS011;47991;42.974;12.082;2023-12-20T08:47:59;32.20;;;22.10;;
62037;SDS011;47991;42.974;12.082;2023-12-20T08:50:26;29.00;;;20.50;;
62037;SDS011;47991;42.974;12.082;2023-12-20T08:52:54;29.30;;;21.20;;
62037;SDS011;47991;42.974;12.082;2023-12-20T08:55:24;28.90;;;21.40;;
62037;SDS011;47991;42.974;12.082;2023-12-20T08:57:55;26.50;;;18.40;;
62037;SDS011;47991;42.974;12.082;2023-12-20T09:00:23;26.10;;;16.50;;
62037;SDS011;47991;42.974;12.082;2023-12-20T09:02:52;24.30;;;16.90;;
62037;SDS011;47991;42.974;12.082;2023-12-20T09:05:20;25.00;;;17.20;;
62037;SDS011;47991;42.974;12.082;2023-12-20T09:07:47;22.20;;;14.90;;
62037;SDS011;47991;42.974;12.082;2023-12-20T09:10:14;23.50;;;16.20;;
62037;SDS011;47991;42.974;12.082;2023-12-20T09:12:41;21.00;;;14.70;;
62037;SDS011;47991;42.974;12.082;2023-12-20T09:15:09;23.10;;;15.50;;
62037;SDS011;47991;42.974;12.082;2023-12-20T09:17:36;21.70;;;14.30;;
62037;SDS011;47991;42.974;12.082;2023-12-20T09:20:03;21.10;;;14.90;;
62037;SDS011;47991;42.974;12.082;2023-12-20T09:22:34;19.20;;;14.70;;
62037;SDS011;47991;42.974;12.082;2023-12-20T09:25:01;22.40;;;15.60;;
62037;SDS011;47991;42.974;12.082;2023-12-20T09:27:29;24.30;;;15.20;;
62037;SDS011;47991;42.974;12.082;2023-12-20T09:29:58;22.80;;;16.40;;
62037;SDS011;47991;42.974;12.082;2023-12-20T09:32:31;24.50;;;17.70;;
62037;SDS011;47991;42.974;12.082;2023-12-20T09:34:59;22.70;;;17.30;;
62037;SDS011;47991;42.974;12.082;2023-12-20T09:37:27;24.70;;;18.20;;
62037;SDS011;47991;42.974;12.082;2023-12-20T09:39:54;25.00;;;18.90;;
62037;SDS011;47991;42.974;12.082;2023-12-20T09:42:29;25.00;;;17.10;;
62037;SDS011;47991;42.974;12.082;2023-12-20T09:45:03;20.40;;;17.00;;
62037;SDS011;47991;42.974;12.082;2023-12-20T09:47:35;20.40;;;16.30;;
62037;SDS011;47991;42.974;12.082;2023-12-20T09:50:02;22.30;;;17.90;;
62037;SDS011;47991;42.974;12.082;2023-12-20T09:52:29;19.20;;;16.60;;
62037;SDS011;47991;42.974;12.082;2023-12-20T09:54:58;20.30;;;16.80;;
62037;SDS011;47991;42.974;12.082;2023-12-20T09:57:25;20.20;;;15.80;;
62037;SDS011;47991;42.974;12.082;2023-12-20T09:59:52;17.70;;;14.50;;
62037;SDS011;47991;42.974;12.082;2023-12-20T10:02:19;17.30;;;15.30;;
62037;SDS011;47991;42.974;12.082;2023-12-20T10:04:51;18.40;;;16.40;;
62037;SDS011;47991;42.974;12.082;2023-12-20T10:07:18;17.50;;;14.90;;
62037;SDS011;47991;42.974;12.082;2023-12-20T10:09:45;16.90;;;14.60;;
62037;SDS011;47991;42.974;12.082;2023-12-20T10:12:13;17.60;;;15.40;;
62037;SDS011;47991;42.974;12.082;2023-12-20T10:14:40;17.90;;;14.60;;
62037;SDS011;47991;42.974;12.082;2023-12-20T10:17:07;20.40;;;16.10;;
62037;SDS011;47991;42.974;12.082;2023-12-20T10:19:34;18.70;;;15.20;;
62037;SDS011;47991;42.974;12.082;2023-12-20T10:22:04;17.00;;;15.20;;
62037;SDS011;47991;42.974;12.082;2023-12-20T10:24:31;18.30;;;14.40;;
62037;SDS011;47991;42.974;12.082;2023-12-20T10:27:05;16.30;;;14.60;;
62037;SDS011;47991;42.974;12.082;2023-12-20T10:29:36;16.60;;;13.60;;
62037;SDS011;47991;42.974;12.082;2023-12-20T10:32:22;16.80;;;14.30;;
62037;SDS011;47991;42.974;12.082;2023-12-20T10:34:52;18.20;;;15.40;;
62037;SDS011;47991;42.974;12.082;2023-12-20T10:37:20;17.20;;;15.10;;
62037;SDS011;47991;42.974;12.082;2023-12-20T10:39:51;18.20;;;15.70;;
62037;SDS011;47991;42.974;12.082;2023-12-20T10:42:22;18.90;;;15.10;;
62037;SDS011;47991;42.974;12.082;2023-12-20T10:44:52;20.10;;;15.20;;
62037;SDS011;47991;42.974;12.082;2023-12-20T10:47:20;20.40;;;15.50;;
62037;SDS011;47991;42.974;12.082;2023-12-20T10:49:47;21.00;;;16.40;;
62037;SDS011;47991;42.974;12.082;2023-12-20T10:52:16;22.60;;;17.00;;
62037;SDS011;47991;42.974;12.082;2023-12-20T10:54:44;20.00;;;16.40;;
62037;SDS011;47991;42.974;12.082;2023-12-20T10:57:12;25.90;;;18.50;;
62037;SDS011;47991;42.974;12.082;2023-12-20T10:59:40;22.10;;;17.70;;
62037;SDS011;47991;42.974;12.082;2023-12-20T11:02:12;24.70;;;19.40;;
62037;SDS011;47991;42.974;12.082;2023-12-20T11:07:42;26.60;;;18.70;;
62037;SDS011;47991;42.974;12.082;2023-12-20T11:13:10;21.40;;;17.60;;
62037;SDS011;47991;42.974;12.082;2023-12-20T11:15:44;24.50;;;18.70;;
62037;SDS011;47991;42.974;12.082;2023-12-20T11:18:12;26.00;;;17.50;;
62037;SDS011;47991;42.974;12.082;2023-12-20T11:20:40;23.70;;;16.50;;
62037;SDS011;47991;42.974;12.082;2023-12-20T11:23:08;23.10;;;18.10;;
62037;SDS011;47991;42.974;12.082;2023-12-20T11:25:48;22.30;;;17.10;;
62037;SDS011;47991;42.974;12.082;2023-12-20T11:28:23;23.20;;;16.90;;
62037;SDS011;47991;42.974;12.082;2023-12-20T11:33:24;23.00;;;16.50;;
62037;SDS011;47991;42.974;12.082;2023-12-20T11:36:01;21.50;;;16.00;;
62037;SDS011;47991;42.974;12.082;2023-12-20T11:38:35;23.10;;;16.40;;
62037;SDS011;47991;42.974;12.082;2023-12-20T11:41:15;24.40;;;16.90;;
62037;SDS011;47991;42.974;12.082;2023-12-20T11:43:42;21.80;;;15.70;;
62037;SDS011;47991;42.974;12.082;2023-12-20T11:46:09;21.60;;;15.30;;
62037;SDS011;47991;42.974;12.082;2023-12-20T11:48:37;22.40;;;15.90;;
62037;SDS011;47991;42.974;12.082;2023-12-20T11:51:09;26.20;;;15.90;;
62037;SDS011;47991;42.974;12.082;2023-12-20T11:53:38;21.10;;;15.40;;
62037;SDS011;47991;42.974;12.082;2023-12-20T11:56:06;23.10;;;16.50;;
62037;SDS011;47991;42.974;12.082;2023-12-20T11:58:33;20.40;;;16.20;;
62037;SDS011;47991;42.974;12.082;2023-12-20T12:01:01;24.00;;;16.30;;
62037;SDS011;47991;42.974;12.082;2023-12-20T12:03:30;27.10;;;18.00;;
62037;SDS011;47991;42.974;12.082;2023-12-20T12:05:57;25.20;;;17.60;;
62037;SDS011;47991;42.974;12.082;2023-12-20T12:08:24;30.10;;;17.20;;
62037;SDS011;47991;42.974;12.082;2023-12-20T12:16:18;21.90;;;16.80;;
62037;SDS011;47991;42.974;12.082;2023-12-20T12:18:57;22.40;;;15.90;;
62037;SDS011;47991;42.974;12.082;2023-12-20T12:21:24;23.70;;;16.10;;
62037;SDS011;47991;42.974;12.082;2023-12-20T12:23:51;21.60;;;14.90;;
62037;SDS011;47991;42.974;12.082;2023-12-20T12:26:19;22.70;;;14.10;;
62037;SDS011;47991;42.974;12.082;2023-12-20T12:28:46;20.10;;;14.60;;
62037;SDS011;47991;42.974;12.082;2023-12-20T12:31:14;23.80;;;15.00;;
62037;SDS011;47991;42.974;12.082;2023-12-20T12:33:42;21.40;;;15.10;;
62037;SDS011;47991;42.974;12.082;2023-12-20T12:39:47;25.00;;;17.00;;
62037;SDS011;47991;42.974;12.082;2023-12-20T12:42:15;25.00;;;16.70;;
62037;SDS011;47991;42.974;12.082;2023-12-20T12:44:42;24.60;;;15.90;;
62037;SDS011;47991;42.974;12.082;2023-12-20T12:47:09;20.60;;;15.00;;
62037;SDS011;47991;42.974;12.082;2023-12-20T12:49:36;19.90;;;13.70;;
62037;SDS011;47991;42.974;12.082;2023-12-20T12:52:04;20.90;;;15.40;;
62037;SDS011;47991;42.974;12.082;2023-12-20T12:54:31;24.20;;;17.00;;
62037;SDS011;47991;42.974;12.082;2023-12-20T12:56:58;24.50;;;17.10;;
62037;SDS011;47991;42.974;12.082;2023-12-20T12:59:25;24.00;;;17.30;;
62037;SDS011;47991;42.974;12.082;2023-12-20T13:01:52;23.00;;;14.80;;
62037;SDS011;47991;42.974;12.082;2023-12-20T13:04:23;23.90;;;15.40;;
62037;SDS011;47991;42.974;12.082;2023-12-20T13:06:50;23.50;;;16.60;;
62037;SDS011;47991;42.974;12.082;2023-12-20T13:09:18;21.90;;;16.00;;
62037;SDS011;47991;42.974;12.082;2023-12-20T13:11:45;24.70;;;16.10;;
62037;SDS011;47991;42.974;12.082;2023-12-20T13:14:12;26.60;;;16.00;;
62037;SDS011;47991;42.974;12.082;2023-12-20T13:16:42;23.20;;;16.10;;
62037;SDS011;47991;42.974;12.082;2023-12-20T13:19:09;21.70;;;15.00;;
62037;SDS011;47991;42.974;12.082;2023-12-20T13:21:37;22.50;;;15.00;;
62037;SDS011;47991;42.974;12.082;2023-12-20T13:24:04;20.80;;;15.40;;
62037;SDS011;47991;42.974;12.082;2023-12-20T13:26:31;23.00;;;14.60;;
62037;SDS011;47991;42.974;12.082;2023-12-20T13:28:59;20.10;;;14.30;;
62037;SDS011;47991;42.974;12.082;2023-12-20T13:31:26;21.90;;;15.10;;
62037;SDS011;47991;42.974;12.082;2023-12-20T13:33:53;22.80;;;15.80;;
62037;SDS011;47991;42.974;12.082;2023-12-20T13:36:20;22.40;;;15.20;;
62037;SDS011;47991;42.974;12.082;2023-12-20T13:38:47;24.40;;;16.10;;
62037;SDS011;47991;42.974;12.082;2023-12-20T13:41:14;21.70;;;16.20;;
62037;SDS011;47991;42.974;12.082;2023-12-20T13:43:41;28.30;;;17.60;;
62037;SDS011;47991;42.974;12.082;2023-12-20T13:46:09;31.50;;;19.10;;
62037;SDS011;47991;42.974;12.082;2023-12-20T13:48:36;27.30;;;18.80;;
62037;SDS011;47991;42.974;12.082;2023-12-20T13:51:04;25.20;;;19.30;;
62037;SDS011;47991;42.974;12.082;2023-12-20T13:53:32;27.00;;;20.10;;
62037;SDS011;47991;42.974;12.082;2023-12-20T13:55:59;28.90;;;20.30;;
62037;SDS011;47991;42.974;12.082;2023-12-20T13:58:26;33.10;;;20.00;;
62037;SDS011;47991;42.974;12.082;2023-12-20T14:00:53;30.40;;;21.20;;
62037;SDS011;47991;42.974;12.082;2023-12-20T14:03:20;31.90;;;22.20;;
62037;SDS011;47991;42.974;12.082;2023-12-20T14:05:48;29.60;;;20.10;;
62037;SDS011;47991;42.974;12.082;2023-12-20T14:08:15;28.00;;;19.30;;
62037;SDS011;47991;42.974;12.082;2023-12-20T14:10:42;28.90;;;20.80;;
62037;SDS011;47991;42.974;12.082;2023-12-20T14:13:09;30.30;;;21.40;;
62037;SDS011;47991;42.974;12.082;2023-12-20T14:15:36;32.00;;;20.60;;
62037;SDS011;47991;42.974;12.082;2023-12-20T14:18:06;29.50;;;22.20;;
62037;SDS011;47991;42.974;12.082;2023-12-20T14:20:34;36.30;;;22.80;;
62037;SDS011;47991;42.974;12.082;2023-12-20T14:23:02;33.60;;;22.60;;
62037;SDS011;47991;42.974;12.082;2023-12-20T14:25:30;31.50;;;22.70;;
62037;SDS011;47991;42.974;12.082;2023-12-20T14:27:58;33.50;;;23.40;;
62037;SDS011;47991;42.974;12.082;2023-12-20T14:30:26;34.30;;;23.20;;
62037;SDS011;47991;42.974;12.082;2023-12-20T14:32:53;30.00;;;22.30;;
62037;SDS011;47991;42.974;12.082;2023-12-20T14:35:20;30.80;;;21.40;;